Time;durP1;ratioP1;P1;durP2;ratioP2;P2;SDS_P1;SDS_P2;PMS_P1;PMS_P2;Temp;Humidity;BMP_temperature;BMP_pressure;BME280_temperature;BME280_humidity;BME280_pressure;Samples;Min_cycle;Max_cycle;Signal;HPM_P1;HPM_P2
2022/06/24 00:00:31;;;;;;;;;;;;;;;17.07;100.00;95462.03;1026851;28;19918;-69
2022/06/24 00:01:01;;;;;;;;;;;;;;;17.04;100.00;95466.13;1019280;29;19991;-70
2022/06/24 00:01:32;;;;;;;;;;;;;;;17.02;100.00;95462.97;1021489;29;19990;-70
2022/06/24 00:02:02;;;;;;;;;;;;;;;17.00;100.00;95462.53;1022577;29;19989;-68
2022/06/24 00:02:32;;;;;;;;;;;;;;;17.00;100.00;95470.47;1022839;28;20385;-67
2022/06/24 00:03:03;;;;;;;;;;;;;;;17.00;100.00;95474.97;1026448;28;19915;-68
2022/06/24 00:03:33;;;;;;;;;;;;;;;16.98;100.00;95470.00;1030837;28;19910;-69
2022/06/24 00:04:03;;;;;;;;;;;;;;;16.94;100.00;95477.00;1029732;28;19921;-69
2022/06/24 00:04:34;;;;;;;;;;;;;;;16.92;100.00;95474.66;1030549;28;19928;-69
2022/06/24 00:05:13;;;;;;;;;;;;;;;16.90;100.00;95470.75;1030309;28;19910;-70
2022/06/24 00:05:44;;;;;;;;;;;;;;;16.92;100.00;95482.59;1019616;28;20383;-69
2022/06/24 00:06:14;;;;;;;;;;;;;;;16.88;100.00;95479.03;1021578;28;20005;-71
2022/06/24 00:06:46;;;;;;;;;;;;;;;16.86;100.00;95477.75;1027841;28;19962;-69
2022/06/24 00:07:16;;;;;;;;;;;;;;;16.86;100.00;95475.09;1027775;28;19910;-70
2022/06/24 00:07:47;;;;;;;;;;;;;;;16.91;100.00;95472.31;1026718;28;19914;-69
2022/06/24 00:08:17;;;;;;;;;;;;;;;16.89;100.00;95480.56;1030877;28;19952;-70
2022/06/24 00:08:51;;;;;;;;;;;;;;;16.87;100.00;95469.50;1030537;28;19920;-69
2022/06/24 00:09:22;;;;;;;;;;;;;;;16.86;100.00;95475.88;1028911;28;20474;-69
2022/06/24 00:09:52;;;;;;;;;;;;;;;16.85;100.00;95469.03;1030528;28;19913;-66
2022/06/24 00:10:23;;;;;;;;;;;;;;;16.85;100.00;95465.59;1030821;28;20037;-67
2022/06/24 00:10:54;;;;;;;;;;;;;;;16.87;100.00;95466.88;1032646;28;19917;-69
2022/06/24 00:11:25;;;;;;;;;;;;;;;16.86;100.00;95467.16;1034383;28;19921;-67
2022/06/24 00:12:11;;;;;;;;;;;;;;;16.85;100.00;95469.03;1033841;28;20364;-69
2022/06/24 00:12:43;;;;;;;;;;;;;;;16.83;100.00;95467.78;1032544;28;19918;-69
2022/06/24 00:13:13;;;;;;;;;;;;;;;16.82;100.00;95466.22;1034074;28;20320;-70
2022/06/24 00:13:44;;;;;;;;;;;;;;;16.81;100.00;95465.44;1028715;28;19961;-70
2022/06/24 00:14:15;;;;;;;;;;;;;;;16.81;100.00;95470.75;1030780;28;19914;-70
2022/06/24 00:14:45;;;;;;;;;;;;;;;16.80;100.00;95465.75;1030619;28;20404;-71
2022/06/24 00:15:22;;;;;;;;;;;;;;;16.79;100.00;95466.84;1026783;28;19910;-69
2022/06/24 00:15:52;;;;;;;;;;;;;;;16.79;100.00;95464.19;1034979;28;19909;-69
2022/06/24 00:16:23;;;;;;;;;;;;;;;16.78;100.00;95474.00;1030814;28;19909;-68
2022/06/24 00:16:57;;;;;;;;;;;;;;;16.78;100.00;95467.94;1030705;28;20339;-69
2022/06/24 00:17:30;;;;;;;;;;;;;;;16.77;100.00;95469.00;1030935;28;19906;-69
2022/06/24 00:18:10;;;;;;;;;;;;;;;16.75;100.00;95471.97;1027867;28;19925;-69
2022/06/24 00:18:40;;;;;;;;;;;;;;;16.78;100.00;95467.94;1034503;28;20002;-69
2022/06/24 00:19:11;;;;;;;;;;;;;;;16.78;100.00;95471.34;1028351;28;19964;-69
2022/06/24 00:20:00;;;;;;;;;;;;;;;16.79;100.00;95472.91;1030701;28;19910;-70
2022/06/24 00:20:30;;;;;;;;;;;;;;;16.79;100.00;95474.78;1030428;28;19914;-70
2022/06/24 00:21:01;;;;;;;;;;;;;;;16.77;100.00;95475.09;1035943;28;19914;-69
2022/06/24 00:21:31;;;;;;;;;;;;;;;16.79;100.00;95478.22;1034891;28;20378;-69
2022/06/24 00:22:09;;;;;;;;;;;;;;;16.80;100.00;95477.16;1030355;28;19934;-70
2022/06/24 00:22:42;;;;;;;;;;;;;;;16.79;100.00;95477.44;1022648;29;19921;-70
2022/06/24 00:23:14;;;;;;;;;;;;;;;16.76;100.00;95481.47;1023858;28;19910;-69
2022/06/24 00:23:45;;;;;;;;;;;;;;;16.76;100.00;95480.69;1024361;28;19919;-70
2022/06/24 00:24:21;;;;;;;;;;;;;;;16.77;100.00;95484.91;1026729;28;19914;-69
2022/06/24 00:25:07;;;;;;;;;;;;;;;16.79;100.00;95483.50;1030825;28;19917;-70
2022/06/24 00:25:38;;;;;;;;;;;;;;;16.78;100.00;95483.84;1030243;28;19914;-70
2022/06/24 00:26:08;;;;;;;;;;;;;;;16.75;100.00;95484.44;1033829;28;19910;-69
2022/06/24 00:26:39;;;;;;;;;;;;;;;16.75;100.00;95484.44;1030870;28;20379;-70
2022/06/24 00:27:25;;;;;;;;;;;;;;;16.76;100.00;95480.69;1026961;28;19925;-70
2022/06/24 00:27:59;;;;;;;;;;;;;;;16.77;100.00;95484.91;1030796;28;19945;-70
2022/06/24 00:28:29;;;;;;;;;;;;;;;16.77;100.00;95484.91;1026388;28;20107;-69
2022/06/24 00:29:00;;;;;;;;;;;;;;;16.75;100.00;95484.44;1036894;28;19918;-71
2022/06/24 00:29:31;;;;;;;;;;;;;;;16.74;100.00;95486.28;1030547;28;19914;-70
2022/06/24 00:30:07;;;;;;;;;;;;;;;16.72;100.00;95486.56;1022946;28;20308;-70
2022/06/24 00:30:38;;;;;;;;;;;;;;;16.71;100.00;95482.38;1026718;28;20340;-70
2022/06/24 00:31:09;;;;;;;;;;;;;;;16.70;100.00;95488.78;1023984;28;19911;-69
2022/06/24 00:31:39;;;;;;;;;;;;;;;16.70;100.00;95488.78;1028516;28;20383;-70
2022/06/24 00:32:09;;;;;;;;;;;;;;;16.71;100.00;95490.31;1030346;28;19914;-70
2022/06/24 00:32:41;;;;;;;;;;;;;;;16.72;100.00;95491.88;1029391;28;19918;-71
2022/06/24 00:33:22;;;;;;;;;;;;;;;16.69;100.00;95487.19;1027022;28;19917;-70
2022/06/24 00:33:52;;;;;;;;;;;;;;;16.70;100.00;95494.06;1024455;28;19921;-70
2022/06/24 00:34:23;;;;;;;;;;;;;;;16.70;100.00;95491.41;1028506;28;20339;-68
2022/06/24 00:35:00;;;;;;;;;;;;;;;16.70;100.00;95488.78;1027037;28;20273;-70
2022/06/24 00:35:34;;;;;;;;;;;;;;;16.69;100.00;95492.50;1028119;28;19917;-69
2022/06/24 00:36:06;;;;;;;;;;;;;;;16.69;100.00;95492.50;1026857;28;20302;-68
2022/06/24 00:36:36;;;;;;;;;;;;;;;16.70;100.00;95495.94;1028766;28;19969;-69
2022/06/24 00:37:42;;;;;;;;;;;;;;;16.69;100.00;95492.50;1027051;28;19978;-69
2022/06/24 00:38:24;;;;;;;;;;;;;;;16.66;100.00;95492.31;1020259;28;19978;-71
2022/06/24 00:38:54;;;;;;;;;;;;;;;16.66;100.00;95497.63;1022847;29;19920;-70
2022/06/24 00:39:32;;;;;;;;;;;;;;;16.64;100.00;95503.25;1018771;29;20441;-68
2022/06/24 00:40:08;;;;;;;;;;;;;;;16.60;100.00;95499.66;1014920;29;19907;-69
2022/06/24 00:40:39;;;;;;;;;;;;;;;16.60;100.00;95499.66;1016435;29;19915;-70
2022/06/24 00:41:12;;;;;;;;;;;;;;;16.61;100.00;95501.19;1028550;28;19914;-70
2022/06/24 00:41:43;;;;;;;;;;;;;;;16.60;100.00;95502.28;1032092;28;20380;-69
2022/06/24 00:42:13;;;;;;;;;;;;;;;16.62;100.00;95502.75;1030273;28;19917;-68
2022/06/24 00:42:44;;;;;;;;;;;;;;;16.60;100.00;95497.00;1023338;28;20357;-69
2022/06/24 00:43:22;;;;;;;;;;;;;;;16.61;100.00;95500.44;1023145;29;19914;-70
2022/06/24 00:43:56;;;;;;;;;;;;;;;16.60;100.00;95496.19;1023025;29;19918;-70
2022/06/24 00:44:27;;;;;;;;;;;;;;;16.59;100.00;95502.59;1026956;28;19910;-70
2022/06/24 00:45:20;;;;;;;;;;;;;;;16.61;100.00;95490.59;1028605;28;19914;-70
2022/06/24 00:45:51;;;;;;;;;;;;;;;16.63;100.00;95493.75;1025467;28;20505;-70
2022/06/24 00:46:24;;;;;;;;;;;;;;;16.65;100.00;95501.38;1033415;28;19965;-70
2022/06/24 00:46:56;;;;;;;;;;;;;;;16.62;100.00;95494.81;1035145;28;19952;-70
2022/06/24 00:47:27;;;;;;;;;;;;;;;16.64;100.00;95505.88;1031094;28;19914;-71
2022/06/24 00:47:57;;;;;;;;;;;;;;;16.62;100.00;95497.47;1027415;28;19914;-69
2022/06/24 00:48:28;;;;;;;;;;;;;;;16.62;100.00;95496.69;1031079;28;20287;-70
2022/06/24 00:48:58;;;;;;;;;;;;;;;16.62;100.00;95502.75;1026888;28;19910;-70
2022/06/24 00:49:28;;;;;;;;;;;;;;;16.60;100.00;95504.94;1026965;28;20360;-69
2022/06/24 00:50:00;;;;;;;;;;;;;;;16.59;100.00;95507.88;1030982;28;20074;-70
2022/06/24 00:50:31;;;;;;;;;;;;;;;16.59;100.00;95507.88;1027313;28;20050;-70
2022/06/24 00:51:01;;;;;;;;;;;;;;;16.60;100.00;95518.19;1031036;28;19949;-70
2022/06/24 00:51:32;;;;;;;;;;;;;;;16.61;100.00;95514.44;1034712;28;19914;-70
2022/06/24 00:52:07;;;;;;;;;;;;;;;16.61;100.00;95514.44;1034848;28;19977;-71
2022/06/24 00:52:38;;;;;;;;;;;;;;;16.62;100.00;95512.56;1038265;28;19905;-70
2022/06/24 00:53:08;;;;;;;;;;;;;;;16.65;100.00;95515.41;1035803;28;19976;-70
2022/06/24 00:53:58;;;;;;;;;;;;;;;16.61;100.00;95506.50;1035139;28;19909;-70
2022/06/24 00:54:29;;;;;;;;;;;;;;;16.58;100.00;95508.97;1033396;28;19928;-70
2022/06/24 00:54:59;;;;;;;;;;;;;;;16.59;100.00;95513.97;1035271;28;20371;-70
2022/06/24 00:55:30;;;;;;;;;;;;;;;16.59;100.00;95513.97;1037773;28;19948;-70
2022/06/24 00:56:00;;;;;;;;;;;;;;;16.59;100.00;95513.19;1039412;28;20390;-69
2022/06/24 00:56:31;;;;;;;;;;;;;;;16.56;100.00;95513.78;1034835;28;19949;-70
2022/06/24 00:57:01;;;;;;;;;;;;;;;16.55;100.00;95513.03;1031078;28;19948;-70
2022/06/24 00:57:35;;;;;;;;;;;;;;;16.56;100.00;95511.16;1031221;28;20011;-70
2022/06/24 00:58:10;;;;;;;;;;;;;;;16.56;100.00;95511.91;1027611;28;20169;-70
2022/06/24 00:58:48;;;;;;;;;;;;;;;16.55;100.00;95512.25;1032127;28;20404;-70
2022/06/24 00:59:19;;;;;;;;;;;;;;;16.55;100.00;95512.25;1033335;28;19913;-71
2022/06/24 00:59:49;;;;;;;;;;;;;;;16.54;100.00;95514.13;1032724;28;20481;-70
2022/06/24 01:00:21;;;;;;;;;;;;;;;16.54;100.00;95511.47;1035076;28;19913;-69
2022/06/24 01:00:52;;;;;;;;;;;;;;;16.54;100.00;95511.47;1035420;28;19922;-70
2022/06/24 01:01:32;;;;;;;;;;;;;;;16.55;100.00;95514.88;1039252;28;19917;-69
2022/06/24 01:02:06;;;;;;;;;;;;;;;16.54;100.00;95515.97;1042913;28;19963;-70
2022/06/24 01:02:36;;;;;;;;;;;;;;;16.50;100.00;95513.16;1034737;28;19925;-70
2022/06/24 01:03:06;;;;;;;;;;;;;;;16.47;100.00;95519.84;1033553;28;19918;-69
2022/06/24 01:03:43;;;;;;;;;;;;;;;16.46;100.00;95512.19;1031029;28;19970;-70
2022/06/24 01:04:13;;;;;;;;;;;;;;;16.47;100.00;95509.25;1031965;28;19913;-70
2022/06/24 01:04:43;;;;;;;;;;;;;;;16.48;100.00;95513.47;1027430;28;19953;-70
2022/06/24 01:05:14;;;;;;;;;;;;;;;16.51;100.00;95512.06;1031038;28;20346;-69
2022/06/24 01:05:44;;;;;;;;;;;;;;;16.49;100.00;95509.72;1026877;28;19925;-70
2022/06/24 01:06:14;;;;;;;;;;;;;;;16.49;100.00;95508.94;1023169;28;19957;-70
2022/06/24 01:06:45;;;;;;;;;;;;;;;16.49;100.00;95512.38;1022798;29;19926;-71
2022/06/24 01:07:16;;;;;;;;;;;;;;;16.47;100.00;95505.84;1022639;29;19922;-71
2022/06/24 01:07:46;;;;;;;;;;;;;;;16.48;100.00;95515.31;1026912;28;19914;-71
2022/06/24 01:08:16;;;;;;;;;;;;;;;16.48;100.00;95508.16;1026733;28;19965;-70
2022/06/24 01:08:47;;;;;;;;;;;;;;;16.48;100.00;95510.81;1035027;28;19972;-70
2022/06/24 01:09:19;;;;;;;;;;;;;;;16.48;100.00;95510.03;1026885;28;19921;-70
2022/06/24 01:09:50;;;;;;;;;;;;;;;16.47;100.00;95517.19;1026564;28;20028;-69
2022/06/24 01:10:20;;;;;;;;;;;;;;;16.47;100.00;95513.78;1026977;28;19929;-68
2022/06/24 01:10:50;;;;;;;;;;;;;;;16.48;100.00;95513.47;1027631;28;19922;-70
2022/06/24 01:11:32;;;;;;;;;;;;;;;16.46;100.00;95510.34;1035337;28;19917;-70
2022/06/24 01:12:03;;;;;;;;;;;;;;;16.48;100.00;95512.69;1030567;28;19927;-70
2022/06/24 01:12:33;;;;;;;;;;;;;;;16.45;100.00;95508.00;1030833;28;19948;-71
2022/06/24 01:13:08;;;;;;;;;;;;;;;16.44;100.00;95512.50;1026980;28;19992;-70
2022/06/24 01:13:38;;;;;;;;;;;;;;;16.46;100.00;95514.84;1027171;28;19957;-70
2022/06/24 01:14:08;;;;;;;;;;;;;;;16.46;100.00;95514.84;1031548;28;20241;-70
2022/06/24 01:14:39;;;;;;;;;;;;;;;16.45;100.00;95511.41;1034989;28;20383;-70
2022/06/24 01:15:09;;;;;;;;;;;;;;;16.43;100.00;95507.50;1034823;28;19929;-70
2022/06/24 01:15:39;;;;;;;;;;;;;;;16.46;100.00;95509.53;1035112;28;20392;-71
2022/06/24 01:16:10;;;;;;;;;;;;;;;16.44;100.00;95507.22;1035047;28;19921;-70
2022/06/24 01:16:40;;;;;;;;;;;;;;;16.45;100.00;95508.00;1039031;28;19972;-69
2022/06/24 01:17:11;;;;;;;;;;;;;;;16.47;100.00;95505.84;1039169;28;20007;-70
2022/06/24 01:17:41;;;;;;;;;;;;;;;16.43;100.00;95507.50;1035077;28;19917;-70
2022/06/24 01:18:11;;;;;;;;;;;;;;;16.43;100.00;95504.84;1031169;28;20024;-70
2022/06/24 01:18:42;;;;;;;;;;;;;;;16.40;100.00;95500.19;1030992;28;19918;-69
2022/06/24 01:19:12;;;;;;;;;;;;;;;16.41;100.00;95499.09;1031064;28;19918;-69
2022/06/24 01:19:43;;;;;;;;;;;;;;;16.41;100.00;95502.53;1022812;29;19911;-70
2022/06/24 01:20:13;;;;;;;;;;;;;;;16.40;100.00;95495.69;1019064;29;20424;-70
2022/06/24 01:20:43;;;;;;;;;;;;;;;16.40;100.00;95502.84;1020486;29;19938;-71
2022/06/24 01:21:28;;;;;;;;;;;;;;;16.40;100.00;95495.69;1023025;29;19922;-71
2022/06/24 01:21:59;;;;;;;;;;;;;;;16.41;100.00;95496.44;1026444;28;20418;-70
2022/06/24 01:22:29;;;;;;;;;;;;;;;16.40;100.00;95489.59;1025519;28;19922;-69
2022/06/24 01:22:59;;;;;;;;;;;;;;;16.35;100.00;95492.38;1033177;28;20376;-71
2022/06/24 01:23:30;;;;;;;;;;;;;;;16.35;100.00;95493.16;1026842;28;19918;-71
2022/06/24 01:24:03;;;;;;;;;;;;;;;16.35;100.00;95493.16;1022889;29;20356;-70
2022/06/24 01:24:33;;;;;;;;;;;;;;;16.35;100.00;95495.78;1027225;28;19918;-68
2022/06/24 01:25:03;;;;;;;;;;;;;;;16.34;100.00;95491.59;1028056;28;20451;-70
2022/06/24 01:25:34;;;;;;;;;;;;;;;16.35;100.00;95489.72;1027817;28;19925;-72
2022/06/24 01:26:04;;;;;;;;;;;;;;;16.34;100.00;95493.47;1031750;28;20435;-70
2022/06/24 01:26:38;;;;;;;;;;;;;;;16.30;100.00;95490.66;1027596;28;20384;-71
2022/06/24 01:27:08;;;;;;;;;;;;;;;16.29;100.00;95489.06;1032052;28;19918;-70
2022/06/24 01:27:39;;;;;;;;;;;;;;;16.27;100.00;95494.69;1035501;28;20323;-70
2022/06/24 01:28:09;;;;;;;;;;;;;;;16.28;100.00;95479.56;1032197;28;20327;-68
2022/06/24 01:28:39;;;;;;;;;;;;;;;16.26;100.00;95485.19;1031662;28;19945;-71
2022/06/24 01:29:10;;;;;;;;;;;;;;;16.29;100.00;95483.00;1027489;28;19925;-70
2022/06/24 01:29:40;;;;;;;;;;;;;;;16.32;100.00;95490.31;1027596;28;19946;-70
2022/06/24 01:30:10;;;;;;;;;;;;;;;16.31;100.00;95488.78;1023692;29;19914;-70
2022/06/24 01:30:41;;;;;;;;;;;;;;;16.29;100.00;95485.63;1019968;28;19919;-70
2022/06/24 01:31:11;;;;;;;;;;;;;;;16.24;100.00;95482.03;1027774;28;20009;-69
2022/06/24 01:31:42;;;;;;;;;;;;;;;16.24;100.00;95474.09;1031604;28;19928;-70
2022/06/24 01:32:12;;;;;;;;;;;;;;;16.25;100.00;95482.81;1031001;28;19924;-67
2022/06/24 01:32:42;;;;;;;;;;;;;;;16.24;100.00;95479.41;1031492;28;19929;-70
2022/06/24 01:33:13;;;;;;;;;;;;;;;16.25;100.00;95480.94;1027694;28;19964;-69
2022/06/24 01:33:43;;;;;;;;;;;;;;;16.25;100.00;95478.31;1027636;28;20380;-70
2022/06/24 01:34:14;;;;;;;;;;;;;;;16.27;100.00;95486.72;1031461;28;20528;-69
2022/06/24 01:34:44;;;;;;;;;;;;;;;16.23;100.00;95485.78;1031595;28;20498;-70
2022/06/24 01:35:15;;;;;;;;;;;;;;;16.21;100.00;95472.06;1027710;28;20370;-70
2022/06/24 01:35:45;;;;;;;;;;;;;;;16.22;100.00;95476.25;1031501;28;19921;-68
2022/06/24 01:36:15;;;;;;;;;;;;;;;16.24;100.00;95471.47;1031699;28;20391;-70
2022/06/24 01:36:46;;;;;;;;;;;;;;;16.22;100.00;95476.25;1027585;28;20092;-70
2022/06/24 01:37:16;;;;;;;;;;;;;;;16.22;100.00;95478.91;1031729;28;20399;-70
2022/06/24 01:37:46;;;;;;;;;;;;;;;16.23;100.00;95472.53;1027493;28;19922;-70
2022/06/24 01:38:16;;;;;;;;;;;;;;;16.23;100.00;95469.91;1019546;29;19918;-70
2022/06/24 01:38:47;;;;;;;;;;;;;;;16.22;100.00;95468.31;1023719;28;20398;-70
2022/06/24 01:39:18;;;;;;;;;;;;;;;16.23;100.00;95469.91;1019444;29;19918;-70
2022/06/24 01:39:48;;;;;;;;;;;;;;;16.26;100.00;95468.50;1023731;28;20424;-70
2022/06/24 01:40:18;;;;;;;;;;;;;;;16.23;100.00;95459.31;1023629;28;19919;-70
2022/06/24 01:40:49;;;;;;;;;;;;;;;16.24;100.00;95465.38;1023562;28;19961;-70
2022/06/24 01:41:19;;;;;;;;;;;;;;;16.24;100.00;95460.88;1031494;28;20017;-70
2022/06/24 01:41:50;;;;;;;;;;;;;;;16.24;100.00;95460.09;1027621;28;20396;-70
2022/06/24 01:42:20;;;;;;;;;;;;;;;16.21;100.00;95458.81;1026859;28;19988;-70
2022/06/24 01:42:50;;;;;;;;;;;;;;;16.25;100.00;95457.13;1031604;28;19922;-70
2022/06/24 01:43:20;;;;;;;;;;;;;;;16.22;100.00;95457.72;1027757;28;19922;-70
2022/06/24 01:43:51;;;;;;;;;;;;;;;16.22;100.00;95460.38;1035881;28;19928;-70
2022/06/24 01:44:25;;;;;;;;;;;;;;;16.22;100.00;95456.94;1039532;28;19917;-70
2022/06/24 01:44:56;;;;;;;;;;;;;;;16.22;100.00;95451.66;1036225;28;20375;-70
2022/06/24 01:45:26;;;;;;;;;;;;;;;16.20;100.00;95449.34;1039761;28;19921;-70
2022/06/24 01:45:56;;;;;;;;;;;;;;;16.22;100.00;95447.13;1031491;28;19922;-70
2022/06/24 01:46:27;;;;;;;;;;;;;;;16.23;100.00;95451.38;1024010;28;19930;-70
2022/06/24 01:46:57;;;;;;;;;;;;;;;16.23;100.00;95448.72;1023725;29;19919;-70
2022/06/24 01:47:28;;;;;;;;;;;;;;;16.20;100.00;95441.38;1023798;28;20260;-70
2022/06/24 01:47:58;;;;;;;;;;;;;;;16.22;100.00;95452.44;1020740;28;19931;-70
2022/06/24 01:48:28;;;;;;;;;;;;;;;16.25;100.00;95446.53;1023510;29;20167;-70
2022/06/24 01:48:59;;;;;;;;;;;;;;;16.22;100.00;95441.84;1027735;28;19922;-71
2022/06/24 01:49:29;;;;;;;;;;;;;;;16.20;100.00;95449.34;1027354;28;19968;-68
2022/06/24 01:49:59;;;;;;;;;;;;;;;16.22;100.00;95446.38;1039794;28;19921;-70
2022/06/24 01:50:30;;;;;;;;;;;;;;;16.19;100.00;95442.44;1039680;28;19909;-70
2022/06/24 01:51:00;;;;;;;;;;;;;;;16.22;100.00;95447.13;1039738;28;19920;-70
2022/06/24 01:51:30;;;;;;;;;;;;;;;16.22;100.00;95451.66;1035550;28;19910;-70
2022/06/24 01:52:01;;;;;;;;;;;;;;;16.21;100.00;95453.53;1031208;28;20004;-70
2022/06/24 01:52:31;;;;;;;;;;;;;;;16.22;100.00;95444.50;1031419;28;20368;-70
2022/06/24 01:53:01;;;;;;;;;;;;;;;16.23;100.00;95456.66;1029348;28;19914;-70
2022/06/24 01:53:31;;;;;;;;;;;;;;;16.23;100.00;95443.44;1027665;28;19914;-70
2022/06/24 01:54:02;;;;;;;;;;;;;;;16.18;100.00;95456.78;1031845;28;19909;-70
2022/06/24 01:54:33;;;;;;;;;;;;;;;16.18;100.00;95450.72;1032442;28;20004;-70
2022/06/24 01:55:04;;;;;;;;;;;;;;;16.17;100.00;95449.94;1039899;28;19909;-70
2022/06/24 01:55:34;;;;;;;;;;;;;;;16.11;100.00;95455.66;1031929;28;19921;-70
2022/06/24 01:56:05;;;;;;;;;;;;;;;16.13;100.00;95453.47;1031133;28;19988;-67
2022/06/24 01:56:35;;;;;;;;;;;;;;;16.13;100.00;95459.56;1034410;28;19914;-71
2022/06/24 01:57:05;;;;;;;;;;;;;;;16.11;100.00;95445.84;1036082;28;20360;-70
2022/06/24 01:57:36;;;;;;;;;;;;;;;16.10;100.00;95460.19;1040005;28;19909;-70
2022/06/24 01:58:06;;;;;;;;;;;;;;;16.11;100.00;95460.97;1031623;28;20388;-70
2022/06/24 01:58:36;;;;;;;;;;;;;;;16.11;100.00;95461.72;1031577;28;19906;-70
2022/06/24 01:59:07;;;;;;;;;;;;;;;16.14;100.00;95461.13;1031376;28;19913;-69
2022/06/24 01:59:37;;;;;;;;;;;;;;;16.13;100.00;95454.28;1027371;28;19929;-71
2022/06/24 02:00:07;;;;;;;;;;;;;;;16.15;100.00;95461.91;1035596;28;20307;-69
2022/06/24 02:00:38;;;;;;;;;;;;;;;16.13;100.00;95464.88;1035735;28;20283;-69
2022/06/24 02:01:08;;;;;;;;;;;;;;;16.14;100.00;95461.13;1035974;28;20378;-70
2022/06/24 02:01:38;;;;;;;;;;;;;;;16.13;100.00;95458.78;1031856;28;20343;-68
2022/06/24 02:02:09;;;;;;;;;;;;;;;16.13;100.00;95456.94;1031461;28;20347;-70
2022/06/24 02:02:39;;;;;;;;;;;;;;;16.12;100.00;95458.00;1027635;28;19922;-71
2022/06/24 02:03:09;;;;;;;;;;;;;;;16.09;100.00;95461.25;1029992;28;19922;-69
2022/06/24 02:03:40;;;;;;;;;;;;;;;16.10;100.00;95454.13;1029607;28;20384;-70
2022/06/24 02:04:10;;;;;;;;;;;;;;;16.10;100.00;95456.75;1028020;28;19929;-70
2022/06/24 02:04:40;;;;;;;;;;;;;;;16.09;100.00;95458.59;1031837;28;20008;-70
2022/06/24 02:05:11;;;;;;;;;;;;;;;16.06;100.00;95459.22;1031749;28;19973;-70
2022/06/24 02:05:41;;;;;;;;;;;;;;;16.05;100.00;95455.00;1031855;28;19954;-70
2022/06/24 02:06:12;;;;;;;;;;;;;;;16.06;100.00;95456.56;1031908;28;20016;-70
2022/06/24 02:06:42;;;;;;;;;;;;;;;16.06;100.00;95459.22;1027698;28;20001;-69
2022/06/24 02:07:13;;;;;;;;;;;;;;;16.03;100.00;95454.53;1030224;28;20366;-68
2022/06/24 02:07:43;;;;;;;;;;;;;;;16.05;100.00;95460.31;1031789;28;19924;-68
2022/06/24 02:08:13;;;;;;;;;;;;;;;16.03;100.00;95465.13;1026304;28;19960;-70
2022/06/24 02:08:44;;;;;;;;;;;;;;;16.01;100.00;95456.69;1031805;28;20435;-70
2022/06/24 02:09:16;;;;;;;;;;;;;;;16.01;100.00;95462.00;1027811;28;19969;-70
2022/06/24 02:13:51;;;;;;;;;;;;;;;15.97;100.00;95461.03;1035829;28;19921;-70
2022/06/24 02:14:21;;;;;;;;;;;;;;;15.95;100.00;95461.34;1036689;28;19917;-71
2022/06/24 02:14:51;;;;;;;;;;;;;;;15.96;100.00;95464.75;1035712;28;19913;-70
2022/06/24 02:15:22;;;;;;;;;;;;;;;15.96;100.00;95459.47;1031818;28;19969;-70
2022/06/24 02:15:56;;;;;;;;;;;;;;;15.95;100.00;95463.19;1027638;28;19984;-70
2022/06/24 02:16:26;;;;;;;;;;;;;;;15.95;100.00;95457.91;1023736;28;19918;-69
2022/06/24 02:16:56;;;;;;;;;;;;;;;15.95;100.00;95463.19;1021444;28;19922;-70
2022/06/24 02:17:26;;;;;;;;;;;;;;;15.96;100.00;95457.63;1028201;28;19921;-70
2022/06/24 02:17:57;;;;;;;;;;;;;;;15.96;100.00;95459.47;1027728;28;20001;-70
2022/06/24 02:18:27;;;;;;;;;;;;;;;15.97;100.00;95459.19;1025212;28;19922;-70
2022/06/24 02:18:58;;;;;;;;;;;;;;;15.95;100.00;95452.63;1023815;28;19925;-68
2022/06/24 02:19:28;;;;;;;;;;;;;;;15.90;100.00;95460.69;1023830;29;20396;-70
2022/06/24 02:19:58;;;;;;;;;;;;;;;15.90;100.00;95458.84;1023140;28;19918;-68
2022/06/24 02:20:29;;;;;;;;;;;;;;;15.89;100.00;95453.81;1023128;29;19918;-69
2022/06/24 02:20:59;;;;;;;;;;;;;;;15.90;100.00;95461.47;1027719;28;19910;-68
2022/06/24 02:21:29;;;;;;;;;;;;;;;15.92;100.00;95461.16;1023857;28;19911;-71
2022/06/24 02:22:00;;;;;;;;;;;;;;;15.89;100.00;95459.13;1027055;28;19910;-70
2022/06/24 02:22:30;;;;;;;;;;;;;;;15.89;100.00;95456.47;1026452;28;19914;-70
2022/06/24 02:23:00;;;;;;;;;;;;;;;15.90;100.00;95461.47;1027758;28;19949;-70
2022/06/24 02:23:31;;;;;;;;;;;;;;;15.92;100.00;95459.28;1035855;28;20587;-70
2022/06/24 02:24:01;;;;;;;;;;;;;;;15.92;100.00;95461.16;1031497;28;19996;-69
2022/06/24 02:24:31;;;;;;;;;;;;;;;15.90;100.00;95455.41;1031654;28;20288;-70
2022/06/24 02:25:02;;;;;;;;;;;;;;;15.91;100.00;95456.97;1031782;28;19952;-70
2022/06/24 02:25:32;;;;;;;;;;;;;;;15.88;100.00;95461.00;1031609;28;20372;-68
2022/06/24 02:26:02;;;;;;;;;;;;;;;15.87;100.00;95462.09;1035653;28;19906;-69
2022/06/24 02:26:33;;;;;;;;;;;;;;;15.87;100.00;95456.78;1031813;28;19906;-67
2022/06/24 02:27:03;;;;;;;;;;;;;;;15.88;100.00;95457.56;1031783;28;20405;-68
2022/06/24 02:27:34;;;;;;;;;;;;;;;15.88;100.00;95460.22;1027573;28;20447;-71
2022/06/24 02:28:04;;;;;;;;;;;;;;;15.89;100.00;95461.75;1031611;28;19949;-69
2022/06/24 02:28:34;;;;;;;;;;;;;;;15.89;100.00;95459.91;1031845;28;19942;-70
2022/06/24 02:29:05;;;;;;;;;;;;;;;15.89;100.00;95462.53;1035729;28;19914;-70
2022/06/24 02:29:35;;;;;;;;;;;;;;;15.89;100.00;95459.13;1035831;28;20426;-70
2022/06/24 02:30:06;;;;;;;;;;;;;;;15.88;100.00;95458.34;1031444;28;19922;-70
2022/06/24 02:30:37;;;;;;;;;;;;;;;15.88;100.00;95468.16;1031695;28;20001;-70
2022/06/24 02:31:07;;;;;;;;;;;;;;;15.85;100.00;95458.94;1027881;28;19913;-69
2022/06/24 02:31:38;;;;;;;;;;;;;;;15.84;100.00;95472.50;1031982;28;19914;-69
2022/06/24 02:32:08;;;;;;;;;;;;;;;15.83;100.00;95465.63;1027152;28;19914;-70
2022/06/24 02:32:39;;;;;;;;;;;;;;;15.84;100.00;95472.50;1023518;28;19979;-68
2022/06/24 02:33:09;;;;;;;;;;;;;;;15.86;100.00;95470.31;1027804;28;19914;-70
2022/06/24 02:33:39;;;;;;;;;;;;;;;15.87;100.00;95466.59;1027599;28;19911;-69
2022/06/24 02:34:10;;;;;;;;;;;;;;;15.84;100.00;95465.31;1035709;28;19910;-71
2022/06/24 02:34:40;;;;;;;;;;;;;;;15.84;100.00;95461.91;1035630;28;19909;-70
2022/06/24 02:35:10;;;;;;;;;;;;;;;15.85;100.00;95468.75;1035822;28;19909;-70
2022/06/24 02:35:41;;;;;;;;;;;;;;;15.85;100.00;95464.22;1031682;28;19938;-70
2022/06/24 02:36:11;;;;;;;;;;;;;;;15.85;100.00;95466.09;1027251;28;19996;-70
2022/06/24 02:36:41;;;;;;;;;;;;;;;15.86;100.00;95465.00;1027350;28;19914;-70
2022/06/24 02:37:12;;;;;;;;;;;;;;;15.85;100.00;95463.47;1023770;28;19915;-69
2022/06/24 02:37:42;;;;;;;;;;;;;;;15.83;100.00;95460.31;1025549;28;19915;-70
2022/06/24 02:38:12;;;;;;;;;;;;;;;15.81;100.00;95457.22;1027705;28;20006;-68
2022/06/24 02:38:42;;;;;;;;;;;;;;;15.82;100.00;95464.06;1031587;28;20012;-69
2022/06/24 02:39:13;;;;;;;;;;;;;;;15.79;100.00;95455.66;1027605;28;19914;-69
2022/06/24 02:39:43;;;;;;;;;;;;;;;15.82;100.00;95459.53;1031563;28;19952;-70
2022/06/24 02:41:02;;;;;;;;;;;;;;;15.83;100.00;95460.31;1038267;28;20338;-66
2022/06/24 02:41:33;;;;;;;;;;;;;;;15.81;100.00;95463.28;1031773;28;19984;-70
2022/06/24 02:42:03;;;;;;;;;;;;;;;15.81;100.00;95462.50;1033764;28;20334;-69
2022/06/24 02:42:34;;;;;;;;;;;;;;;15.78;100.00;95464.66;1031433;28;19961;-68
2022/06/24 02:43:07;;;;;;;;;;;;;;;15.79;100.00;95466.25;1031679;28;19929;-71
2022/06/24 02:43:38;;;;;;;;;;;;;;;15.79;100.00;95463.59;1035653;28;19918;-69
2022/06/24 02:44:08;;;;;;;;;;;;;;;15.80;100.00;95467.03;1032240;28;20027;-70
2022/06/24 02:44:38;;;;;;;;;;;;;;;15.78;100.00;95469.94;1031329;28;19957;-68
2022/06/24 02:45:09;;;;;;;;;;;;;;;15.78;100.00;95467.31;1023555;28;19956;-70
2022/06/24 02:45:39;;;;;;;;;;;;;;;15.79;100.00;95468.09;1027627;28;19928;-69
2022/06/24 02:46:10;;;;;;;;;;;;;;;15.80;100.00;95472.31;1031561;28;19990;-70
2022/06/24 02:46:41;;;;;;;;;;;;;;;15.78;100.00;95467.31;1031834;28;19924;-69
2022/06/24 02:47:11;;;;;;;;;;;;;;;15.78;100.00;95469.19;1039837;28;19936;-70